createdAt,value
2023-02-11T00:01:54.036Z,70.46
2023-02-11T00:04:39.539Z,70.50
2023-02-11T00:07:24.898Z,70.81
2023-02-11T00:10:10.497Z,70.91
2023-02-11T00:12:56.280Z,70.65
2023-02-11T00:15:41.798Z,70.78
2023-02-11T00:18:28.054Z,70.43
2023-02-11T00:21:15.697Z,70.63
2023-02-11T00:24:02.189Z,70.93
2023-02-11T00:26:47.833Z,70.48
2023-02-11T00:29:32.987Z,71.16
2023-02-11T00:32:18.567Z,70.65
2023-02-11T00:35:03.735Z,70.42
2023-02-11T00:37:53.727Z,70.67
2023-02-11T00:40:38.860Z,69.88
2023-02-11T00:43:23.919Z,69.97
2023-02-11T00:46:09.921Z,70.55
2023-02-11T00:48:57.693Z,70.22
2023-02-11T00:51:43.112Z,70.59
2023-02-11T00:54:30.006Z,70.09
2023-02-11T00:57:15.436Z,70.18
2023-02-11T01:00:00.963Z,70.62
2023-02-11T01:02:46.279Z,70.01
2023-02-11T01:05:31.938Z,70.11
2023-02-11T01:08:17.272Z,70.07
2023-02-11T01:11:06.513Z,70.10
2023-02-11T01:13:51.848Z,70.56
2023-02-11T01:16:37.363Z,70.87
2023-02-11T01:19:23.582Z,71.28
2023-02-11T01:22:09.213Z,71.79
2023-02-11T01:24:54.475Z,71.65
2023-02-11T01:27:40.225Z,71.93
2023-02-11T01:30:25.463Z,71.76
2023-02-11T01:33:10.711Z,70.72
2023-02-11T01:35:56.034Z,70.82
2023-02-11T01:38:41.454Z,70.95
2023-02-11T01:41:26.887Z,70.66
2023-02-11T01:44:26.249Z,70.44
2023-02-11T01:47:11.582Z,70.73
2023-02-11T01:50:01.540Z,70.78
2023-02-11T01:52:48.685Z,71.09
2023-02-11T01:55:52.750Z,70.37
2023-02-11T01:58:41.455Z,70.95
2023-02-11T02:01:28.957Z,70.72
2023-02-11T02:04:18.738Z,70.70
2023-02-11T02:07:10.654Z,70.83
2023-02-11T02:10:03.264Z,71.14
2023-02-11T02:12:48.545Z,71.26
2023-02-11T02:15:39.697Z,71.49
2023-02-11T02:18:48.745Z,71.69
2023-02-11T02:22:25.042Z,71.30
2023-02-11T02:25:31.719Z,72.04
2023-02-11T02:28:39.121Z,72.23
2023-02-11T02:31:53.110Z,72.21
2023-02-11T02:34:49.915Z,72.11
2023-02-11T02:38:17.071Z,72.59
2023-02-11T02:41:13.627Z,71.73
2023-02-11T02:43:59.271Z,72.45
2023-02-11T02:46:44.695Z,72.52
2023-02-11T02:49:29.986Z,72.65
2023-02-11T02:52:51.564Z,72.76
2023-02-11T02:55:57.491Z,72.79
2023-02-11T02:59:02.305Z,72.41
2023-02-11T03:02:13.538Z,72.82
2023-02-11T03:05:01.996Z,72.96
2023-02-11T03:07:47.354Z,72.86
2023-02-11T03:10:36.474Z,73.54
2023-02-11T03:13:29.360Z,73.00
2023-02-11T03:16:22.758Z,73.27
2023-02-11T03:19:22.414Z,73.19
2023-02-11T03:22:16.964Z,73.43
2023-02-11T03:25:02.960Z,73.79
2023-02-11T03:27:57.571Z,73.47
2023-02-11T03:30:53.406Z,73.85
2023-02-11T03:33:53.822Z,73.93
2023-02-11T03:36:46.054Z,73.80
2023-02-11T03:39:37.766Z,74.05
2023-02-11T03:42:28.813Z,74.45
2023-02-11T03:45:17.229Z,74.39
2023-02-11T03:48:12.613Z,74.45
2023-02-11T03:51:01.487Z,74.81
2023-02-11T03:53:48.219Z,74.53
2023-02-11T03:56:48.953Z,75.27
2023-02-11T03:59:53.969Z,74.51
2023-02-11T04:02:40.694Z,74.79
2023-02-11T04:05:26.315Z,74.77
2023-02-11T04:08:11.664Z,74.95
2023-02-11T04:10:57.101Z,74.76
2023-02-11T04:13:42.441Z,75.20
2023-02-11T04:16:28.135Z,75.02
2023-02-11T04:19:13.296Z,75.73
2023-02-11T04:21:59.269Z,75.34
2023-02-11T04:24:44.656Z,76.03
2023-02-11T04:27:30.158Z,75.58
2023-02-11T04:30:15.286Z,76.32
2023-02-11T04:33:00.261Z,75.93
2023-02-11T04:35:45.748Z,76.19
2023-02-11T04:38:31.175Z,76.22
2023-02-11T04:41:16.665Z,76.54
2023-02-11T04:44:02.036Z,77.54
2023-02-11T04:46:47.486Z,77.56
2023-02-11T04:49:33.042Z,77.80
2023-02-11T04:52:18.248Z,79.19
2023-02-11T04:55:04.158Z,78.35
2023-02-11T04:57:49.601Z,79.12
2023-02-11T05:00:35.065Z,79.11
2023-02-11T05:03:20.556Z,78.56
2023-02-11T05:06:06.639Z,79.56
2023-02-11T05:08:51.948Z,79.23
2023-02-11T05:11:39.288Z,79.03
2023-02-11T05:14:24.451Z,79.82
2023-02-11T05:17:09.929Z,80.21
2023-02-11T05:19:55.496Z,80.61
2023-02-11T05:22:40.709Z,80.52
2023-02-11T05:25:26.060Z,80.88
2023-02-11T05:28:11.275Z,80.81
2023-02-11T05:30:56.744Z,80.83
2023-02-11T05:33:42.267Z,81.01
2023-02-11T05:36:27.604Z,81.03
2023-02-11T05:39:12.881Z,81.11
2023-02-11T05:41:58.458Z,81.29
2023-02-11T05:44:43.785Z,81.84
2023-02-11T05:47:29.331Z,81.95
2023-02-11T05:50:14.768Z,82.45
2023-02-11T05:53:00.013Z,82.83
2023-02-11T05:55:45.978Z,82.72
2023-02-11T05:58:32.213Z,83.25
2023-02-11T06:01:17.669Z,83.76
2023-02-11T06:04:02.892Z,84.22
2023-02-11T06:06:48.320Z,83.95
2023-02-11T06:09:33.498Z,84.46
2023-02-11T06:12:18.845Z,84.35
2023-02-11T06:15:05.583Z,85.04
2023-02-11T06:17:50.895Z,85.33
2023-02-11T06:20:37.144Z,84.61
2023-02-11T06:23:22.666Z,85.21
2023-02-11T06:26:10.540Z,85.32
2023-02-11T06:28:55.903Z,86.02
2023-02-11T06:31:41.537Z,85.72
2023-02-11T06:34:26.637Z,86.53
2023-02-11T06:37:11.946Z,86.53
2023-02-11T06:39:57.162Z,87.12
2023-02-11T06:42:42.532Z,87.14
2023-02-11T06:45:27.594Z,87.95
2023-02-11T06:48:12.951Z,88.97
2023-02-11T06:51:02.864Z,89.15
2023-02-11T06:53:48.942Z,89.06
2023-02-11T06:56:34.759Z,88.89
2023-02-11T06:59:20.752Z,89.24
2023-02-11T07:02:06.118Z,89.49
2023-02-11T07:04:51.570Z,89.72
2023-02-11T07:07:37.594Z,89.62
2023-02-11T07:10:22.878Z,89.15
2023-02-11T07:13:08.282Z,89.36
2023-02-11T07:15:53.650Z,89.86
2023-02-11T07:18:38.769Z,90.08
2023-02-11T07:21:24.395Z,89.72
2023-02-11T07:24:11.169Z,89.66
2023-02-11T07:26:56.614Z,89.22
2023-02-11T07:29:43.452Z,89.27
2023-02-11T07:32:28.559Z,89.26
2023-02-11T07:35:14.731Z,88.84
2023-02-11T07:37:59.757Z,88.87
2023-02-11T07:40:45.238Z,88.57
2023-02-11T07:43:31.700Z,88.04
2023-02-11T07:46:20.330Z,88.37
2023-02-11T07:49:05.316Z,87.81
2023-02-11T07:51:51.459Z,87.49
2023-02-11T07:54:36.733Z,87.90
2023-02-11T07:57:22.013Z,87.61
2023-02-11T08:00:07.346Z,87.45
2023-02-11T08:02:59.177Z,87.77
2023-02-11T08:05:44.323Z,87.16
2023-02-11T08:08:29.696Z,87.14
2023-02-11T08:11:20.770Z,87.25
2023-02-11T08:14:06.191Z,87.47
2023-02-11T08:16:51.833Z,87.33
2023-02-11T08:19:37.051Z,88.29
2023-02-11T08:22:22.555Z,88.01
2023-02-11T08:25:08.170Z,87.66
2023-02-11T08:27:53.328Z,88.36
2023-02-11T08:30:38.601Z,88.10
2023-02-11T08:33:23.991Z,88.81
2023-02-11T08:36:21.527Z,88.76
2023-02-11T08:39:19.298Z,89.29
2023-02-11T08:42:05.350Z,89.87
2023-02-11T08:44:50.557Z,89.63
2023-02-11T08:47:37.062Z,89.87
2023-02-11T08:50:22.416Z,89.83
2023-02-11T08:53:08.197Z,90.01
2023-02-11T08:55:55.275Z,89.61
2023-02-11T08:58:40.884Z,90.23
2023-02-11T09:01:29.622Z,89.71
2023-02-11T09:04:15.068Z,90.35
2023-02-11T09:07:00.561Z,90.22
2023-02-11T09:09:45.748Z,90.08
2023-02-11T09:12:31.013Z,89.83
2023-02-11T09:15:16.572Z,89.90
2023-02-11T09:18:02.619Z,89.85
2023-02-11T09:20:47.838Z,89.74
2023-02-11T09:23:34.529Z,89.95
2023-02-11T09:26:24.825Z,90.20
2023-02-11T09:29:10.117Z,90.17
2023-02-11T09:31:55.630Z,90.02
2023-02-11T09:34:40.987Z,90.74
2023-02-11T09:37:26.562Z,90.96
2023-02-11T09:40:14.605Z,90.91
2023-02-11T09:43:05.903Z,91.10
2023-02-11T09:45:54.880Z,90.95
2023-02-11T09:48:42.812Z,91.08
2023-02-11T09:51:45.299Z,91.44
2023-02-11T09:54:35.090Z,91.38
2023-02-11T09:57:28.580Z,90.96
2023-02-11T10:00:48.454Z,91.37
2023-02-11T10:03:39.752Z,91.89
2023-02-11T10:06:37.091Z,92.47
2023-02-11T10:09:40.889Z,92.92
2023-02-11T10:12:58.845Z,93.29
2023-02-11T10:16:13.800Z,93.12
2023-02-11T10:19:09.666Z,93.59
2023-02-11T10:22:40.107Z,94.16
2023-02-11T10:25:26.976Z,94.83
2023-02-11T10:28:18.652Z,94.87
2023-02-11T10:31:11.384Z,95.27
2023-02-11T10:34:07.061Z,95.52
2023-02-11T10:36:52.381Z,95.93
2023-02-11T10:39:39.890Z,95.62
2023-02-11T10:42:25.864Z,96.41
2023-02-11T10:45:19.296Z,96.20
2023-02-11T10:48:09.005Z,96.56
2023-02-11T10:51:08.703Z,97.30
2023-02-11T10:54:08.206Z,97.47
2023-02-11T10:56:59.521Z,98.05
2023-02-11T10:59:45.043Z,97.99
2023-02-11T11:02:34.701Z,98.29
2023-02-11T11:05:24.317Z,98.85
2023-02-11T11:08:09.661Z,98.60
2023-02-11T11:11:05.144Z,98.91
2023-02-11T11:13:53.429Z,99.15
2023-02-11T11:16:38.854Z,99.23
2023-02-11T11:19:25.913Z,99.59
2023-02-11T11:22:22.091Z,100.00
2023-02-11T11:25:22.322Z,100.00
2023-02-11T11:28:25.428Z,100.00
2023-02-11T11:31:28.968Z,100.00
2023-02-11T11:34:32.302Z,100.00
2023-02-11T11:37:43.993Z,100.00
2023-02-11T11:40:34.604Z,100.00
2023-02-11T11:43:23.873Z,100.00
2023-02-11T11:46:12.214Z,100.00
2023-02-11T11:49:23.225Z,100.00
2023-02-11T11:52:18.202Z,100.00
2023-02-11T11:55:33.071Z,100.00
2023-02-11T11:58:21.525Z,100.00
2023-02-11T12:01:10.023Z,100.00
2023-02-11T12:04:14.140Z,100.00
2023-02-11T12:07:26.029Z,100.00
2023-02-11T12:10:14.314Z,100.00
2023-02-11T12:13:23.399Z,100.00
2023-02-11T12:16:33.722Z,100.00
2023-02-11T12:19:46.703Z,99.82
2023-02-11T12:23:09.235Z,99.79
2023-02-11T12:26:17.746Z,99.45
2023-02-11T12:29:36.620Z,99.56
2023-02-11T12:32:43.263Z,99.66
2023-02-11T12:35:37.003Z,100.00
2023-02-11T12:39:02.013Z,99.92
2023-02-11T12:42:09.405Z,99.90
2023-02-11T12:45:13.963Z,100.00
2023-02-11T12:48:05.233Z,100.00
2023-02-11T12:50:56.891Z,99.73
2023-02-11T12:54:11.921Z,99.91
2023-02-11T12:57:11.101Z,99.74
2023-02-11T13:00:02.838Z,99.49
2023-02-11T13:02:54.504Z,99.51
2023-02-11T13:05:54.085Z,99.56
2023-02-11T13:08:49.305Z,99.26
2023-02-11T13:11:43.161Z,99.89
2023-02-11T13:14:35.279Z,99.99
2023-02-11T13:17:29.913Z,100.00
2023-02-11T13:20:30.209Z,100.00
2023-02-11T13:23:31.694Z,100.00
2023-02-11T13:26:24.533Z,100.00
2023-02-11T13:29:30.370Z,100.00
2023-02-11T13:32:16.109Z,100.00
2023-02-11T13:35:02.087Z,100.00
2023-02-11T13:37:48.015Z,100.00
2023-02-11T13:40:39.242Z,100.00
2023-02-11T13:43:30.010Z,100.00
2023-02-11T13:46:15.851Z,100.00
2023-02-11T13:49:01.009Z,100.00
2023-02-11T13:51:47.378Z,100.00
2023-02-11T13:54:38.926Z,100.00
2023-02-11T13:57:32.181Z,100.00
2023-02-11T14:00:32.799Z,100.00
2023-02-11T14:03:46.267Z,100.00
2023-02-11T14:06:50.131Z,100.00
2023-02-11T14:09:38.729Z,100.00
2023-02-11T14:12:31.475Z,100.00
2023-02-11T14:15:20.399Z,100.00
2023-02-11T14:18:37.218Z,100.00
2023-02-11T14:21:26.185Z,100.00
2023-02-11T14:24:11.570Z,100.00
2023-02-11T14:27:28.150Z,100.00
2023-02-11T14:30:26.862Z,100.00
2023-02-11T14:33:40.236Z,100.00
2023-02-11T14:36:43.650Z,100.00
2023-02-11T14:39:40.934Z,100.00
2023-02-11T14:42:29.607Z,100.00
2023-02-11T14:45:21.180Z,100.00
2023-02-11T14:48:16.086Z,100.00
2023-02-11T14:51:19.529Z,100.00
2023-02-11T14:54:18.955Z,100.00
2023-02-11T14:57:16.095Z,100.00
2023-02-11T15:00:19.634Z,100.00
2023-02-11T15:03:05.226Z,100.00
2023-02-11T15:05:55.756Z,100.00
2023-02-11T15:08:52.153Z,100.00
2023-02-11T15:11:43.338Z,100.00
2023-02-11T15:14:32.975Z,100.00
2023-02-11T15:17:21.077Z,100.00
2023-02-11T15:20:13.493Z,100.00
2023-02-11T15:23:01.211Z,100.00
2023-02-11T15:25:52.555Z,100.00
2023-02-11T15:28:38.093Z,100.00
2023-02-11T15:31:25.839Z,100.00
2023-02-11T15:34:14.423Z,100.00
2023-02-11T15:36:59.729Z,100.00
2023-02-11T15:39:45.046Z,100.00
2023-02-11T15:42:40.780Z,100.00
2023-02-11T15:45:36.207Z,100.00
2023-02-11T15:48:26.660Z,100.00
2023-02-11T15:51:28.677Z,100.00
2023-02-11T15:54:24.063Z,100.00
2023-02-11T15:57:10.339Z,100.00
2023-02-11T16:00:04.253Z,100.00
2023-02-11T16:02:57.470Z,100.00
2023-02-11T16:05:42.670Z,100.00
2023-02-11T16:08:29.993Z,100.00
2023-02-11T16:11:26.178Z,100.00
2023-02-11T16:14:29.838Z,100.00
2023-02-11T16:17:17.980Z,100.00
2023-02-11T16:20:03.908Z,100.00
2023-02-11T16:22:49.121Z,100.00
2023-02-11T16:25:37.690Z,100.00
2023-02-11T16:28:23.307Z,100.00
2023-02-11T16:31:09.610Z,100.00
2023-02-11T16:33:54.580Z,100.00
2023-02-11T16:36:40.120Z,100.00
2023-02-11T16:39:25.414Z,100.00
2023-02-11T16:42:13.878Z,100.00
2023-02-11T16:45:00.195Z,100.00
2023-02-11T16:47:46.104Z,100.00
